createdAt,value
2023-08-29T00:00:20.554Z,77.39
2023-08-29T00:02:49.529Z,77.37
2023-08-29T00:05:17.568Z,78.13
2023-08-29T00:07:45.343Z,77.61
2023-08-29T00:10:13.398Z,78.10
2023-08-29T00:12:42.856Z,77.79
2023-08-29T00:15:11.900Z,78.65
2023-08-29T00:17:39.962Z,78.26
2023-08-29T00:20:08.942Z,78.82
2023-08-29T00:22:36.676Z,78.12
2023-08-29T00:25:04.726Z,78.76
2023-08-29T00:27:32.496Z,78.15
2023-08-29T00:30:01.631Z,78.07
2023-08-29T00:32:29.531Z,78.57
2023-08-29T00:34:57.321Z,78.31
2023-08-29T00:37:25.108Z,78.15
2023-08-29T00:39:52.876Z,78.00
2023-08-29T00:42:20.666Z,78.67
2023-08-29T00:44:48.393Z,78.81
2023-08-29T00:47:17.529Z,78.61
2023-08-29T00:49:45.542Z,78.68
2023-08-29T00:52:13.354Z,78.39
2023-08-29T00:54:41.592Z,78.68
2023-08-29T00:57:09.659Z,78.42
2023-08-29T00:59:37.515Z,79.16
2023-08-29T01:02:05.451Z,78.74
2023-08-29T01:04:34.576Z,79.08
2023-08-29T01:07:02.320Z,78.75
2023-08-29T01:09:30.128Z,78.83
2023-08-29T01:12:02.731Z,79.55
2023-08-29T01:14:37.329Z,79.31
2023-08-29T01:17:10.259Z,79.13
2023-08-29T01:19:41.963Z,79.79
2023-08-29T01:22:27.119Z,79.50
2023-08-29T01:25:00.024Z,79.68
2023-08-29T01:27:29.604Z,79.98
2023-08-29T01:29:58.353Z,79.80
2023-08-29T01:32:27.572Z,80.00
2023-08-29T01:34:56.177Z,79.86
2023-08-29T01:37:23.987Z,80.31
2023-08-29T01:39:51.765Z,80.46
2023-08-29T01:42:19.520Z,80.15
2023-08-29T01:44:48.705Z,79.57
2023-08-29T01:47:16.519Z,80.33
2023-08-29T01:49:44.563Z,80.27
2023-08-29T01:52:12.358Z,79.85
2023-08-29T01:54:40.181Z,80.45
2023-08-29T01:57:10.281Z,80.30
2023-08-29T01:59:38.232Z,80.07
2023-08-29T02:02:07.404Z,80.37
2023-08-29T02:04:35.222Z,80.72
2023-08-29T02:07:03.210Z,80.13
2023-08-29T02:09:32.311Z,80.03
2023-08-29T02:12:00.149Z,80.05
2023-08-29T02:14:27.901Z,80.22
2023-08-29T02:16:55.721Z,80.74
2023-08-29T02:19:24.819Z,80.90
2023-08-29T02:21:52.594Z,80.54
2023-08-29T02:24:20.394Z,80.82
2023-08-29T02:26:48.134Z,80.19
2023-08-29T02:29:15.910Z,80.33
2023-08-29T02:31:43.708Z,81.05
2023-08-29T02:34:11.699Z,80.85
2023-08-29T02:36:40.855Z,80.48
2023-08-29T02:39:08.711Z,80.56
2023-08-29T02:41:36.477Z,80.40
2023-08-29T02:44:04.440Z,80.59
2023-08-29T02:46:32.205Z,80.69
2023-08-29T02:49:00.186Z,80.75
2023-08-29T02:51:27.957Z,81.23
2023-08-29T02:53:57.195Z,80.97
2023-08-29T02:56:25.049Z,80.51
2023-08-29T02:58:55.632Z,80.44
2023-08-29T03:01:23.432Z,80.52
2023-08-29T03:03:51.500Z,81.13
2023-08-29T03:06:19.286Z,80.55
2023-08-29T03:08:47.144Z,80.53
2023-08-29T03:11:16.294Z,80.96
2023-08-29T03:13:44.139Z,80.46
2023-08-29T03:16:17.420Z,80.82
2023-08-29T03:18:46.789Z,80.89
2023-08-29T03:21:14.540Z,80.74
2023-08-29T03:23:42.317Z,80.60
2023-08-29T03:26:14.134Z,80.75
2023-08-29T03:28:43.236Z,80.81
2023-08-29T03:31:13.983Z,80.14
2023-08-29T03:33:42.565Z,80.10
2023-08-29T03:36:10.526Z,80.39
2023-08-29T03:38:39.483Z,80.72
2023-08-29T03:41:08.193Z,80.29
2023-08-29T03:43:36.837Z,79.99
2023-08-29T03:46:07.133Z,80.20
2023-08-29T03:48:36.237Z,80.83
2023-08-29T03:51:07.598Z,80.85
2023-08-29T03:53:35.812Z,80.58
2023-08-29T03:56:04.522Z,80.94
2023-08-29T03:58:32.476Z,80.75
2023-08-29T04:01:01.001Z,80.54
2023-08-29T04:03:30.590Z,80.62
2023-08-29T04:05:58.657Z,81.20
2023-08-29T04:08:26.464Z,81.26
2023-08-29T04:10:54.276Z,81.02
2023-08-29T04:13:22.060Z,80.76
2023-08-29T04:15:49.929Z,80.90
2023-08-29T04:18:17.929Z,81.47
2023-08-29T04:20:47.045Z,81.26
2023-08-29T04:23:14.849Z,80.97
2023-08-29T04:25:42.703Z,81.31
2023-08-29T04:28:10.685Z,81.55
2023-08-29T04:30:38.602Z,81.33
2023-08-29T04:33:08.054Z,80.87
2023-08-29T04:35:36.005Z,81.43
2023-08-29T04:38:05.766Z,81.55
2023-08-29T04:40:33.830Z,80.93
2023-08-29T04:43:01.554Z,81.78
2023-08-29T04:45:29.420Z,81.61
2023-08-29T04:47:57.272Z,81.17
2023-08-29T04:50:26.921Z,81.80
2023-08-29T04:52:56.281Z,81.43
2023-08-29T04:55:26.278Z,81.09
2023-08-29T04:57:55.870Z,81.51
2023-08-29T05:00:24.067Z,81.15
2023-08-29T05:02:52.051Z,81.13
2023-08-29T05:05:20.072Z,81.81
2023-08-29T05:07:47.850Z,81.15
2023-08-29T05:10:15.805Z,81.41
2023-08-29T05:12:44.871Z,81.73
2023-08-29T05:15:12.642Z,81.07
2023-08-29T05:17:40.460Z,81.16
2023-08-29T05:20:11.044Z,81.31
2023-08-29T05:22:39.171Z,81.16
2023-08-29T05:25:07.892Z,81.22
2023-08-29T05:27:36.013Z,81.32
2023-08-29T05:30:07.026Z,81.13
2023-08-29T05:32:34.867Z,81.37
2023-08-29T05:35:02.604Z,81.08
2023-08-29T05:37:30.456Z,80.94
2023-08-29T05:39:58.215Z,81.53
2023-08-29T05:42:26.457Z,81.06
2023-08-29T05:44:54.176Z,80.85
2023-08-29T05:47:23.332Z,81.07
2023-08-29T05:49:51.075Z,80.60
2023-08-29T05:52:18.868Z,81.01
2023-08-29T05:54:46.621Z,80.74
2023-08-29T05:57:14.392Z,80.69
2023-08-29T05:59:42.326Z,80.44
2023-08-29T06:02:10.198Z,81.15
2023-08-29T06:04:40.096Z,80.55
2023-08-29T06:07:08.612Z,80.98
2023-08-29T06:09:36.375Z,80.95
2023-08-29T06:12:04.173Z,80.59
2023-08-29T06:14:31.947Z,80.34
2023-08-29T06:17:00.701Z,80.66
2023-08-29T06:19:28.514Z,80.98
2023-08-29T06:21:57.627Z,80.21
2023-08-29T06:24:25.437Z,80.65
2023-08-29T06:26:53.221Z,80.74
2023-08-29T06:29:21.027Z,80.11
2023-08-29T06:31:48.764Z,80.10
2023-08-29T06:34:16.567Z,80.34
2023-08-29T06:36:44.336Z,80.69
2023-08-29T06:39:14.288Z,79.85
2023-08-29T06:41:42.026Z,79.87
2023-08-29T06:44:09.823Z,80.16
2023-08-29T06:46:37.687Z,80.32
2023-08-29T06:49:07.167Z,80.18
2023-08-29T06:51:34.963Z,79.98
2023-08-29T06:54:03.079Z,80.04
2023-08-29T06:56:32.228Z,79.53
2023-08-29T06:59:00.016Z,79.39
2023-08-29T07:01:28.141Z,79.86
2023-08-29T07:03:55.924Z,79.79
2023-08-29T07:06:23.711Z,79.48
2023-08-29T07:08:51.492Z,79.97
2023-08-29T07:11:19.310Z,79.88
2023-08-29T07:13:48.456Z,79.30
2023-08-29T07:16:16.298Z,79.40
2023-08-29T07:18:44.059Z,79.19
2023-08-29T07:21:12.046Z,79.31
2023-08-29T07:23:39.795Z,79.35
2023-08-29T07:26:07.666Z,78.61
2023-08-29T07:28:35.439Z,78.38
2023-08-29T07:31:04.604Z,78.38
2023-08-29T07:33:32.433Z,78.08
2023-08-29T07:36:00.193Z,78.32
2023-08-29T07:38:27.989Z,78.27
2023-08-29T07:40:57.945Z,78.01
2023-08-29T07:43:26.987Z,77.82
2023-08-29T07:45:55.072Z,77.36
2023-08-29T07:48:24.231Z,77.13
2023-08-29T07:50:53.128Z,77.52
2023-08-29T07:53:20.949Z,77.20
2023-08-29T07:55:48.842Z,76.68
2023-08-29T07:58:16.997Z,76.54
2023-08-29T08:00:45.709Z,76.04
2023-08-29T08:03:13.450Z,76.01
2023-08-29T08:05:42.654Z,75.66
2023-08-29T08:08:13.240Z,75.06
2023-08-29T08:10:41.023Z,74.90
2023-08-29T08:13:09.318Z,74.78
2023-08-29T08:15:37.072Z,75.35
2023-08-29T08:18:05.388Z,74.62
2023-08-29T08:20:33.464Z,74.83
2023-08-29T08:23:04.395Z,74.34
2023-08-29T08:25:32.302Z,74.08
2023-08-29T08:28:00.423Z,74.22
2023-08-29T08:30:30.021Z,74.50
2023-08-29T08:32:57.772Z,74.25
2023-08-29T08:35:26.570Z,73.30
2023-08-29T08:37:54.856Z,72.68
2023-08-29T08:40:25.192Z,72.04
2023-08-29T08:42:54.225Z,72.65
2023-08-29T08:45:23.652Z,72.05
2023-08-29T08:47:51.674Z,72.08
2023-08-29T08:50:19.649Z,71.17
2023-08-29T08:52:49.283Z,70.66
2023-08-29T08:55:17.229Z,71.17
2023-08-29T08:57:47.777Z,70.90
2023-08-29T09:00:16.283Z,70.12
2023-08-29T09:02:50.567Z,69.96
2023-08-29T09:05:19.882Z,70.67
2023-08-29T09:07:47.681Z,70.44
2023-08-29T09:10:17.248Z,69.37
2023-08-29T09:12:53.187Z,68.04
2023-08-29T09:15:21.604Z,68.96
2023-08-29T09:17:53.949Z,66.82
2023-08-29T09:20:22.360Z,67.71
2023-08-29T09:22:50.522Z,67.44
2023-08-29T09:25:18.247Z,66.62
2023-08-29T09:27:48.206Z,65.45
2023-08-29T09:30:19.487Z,65.35
2023-08-29T09:32:48.074Z,66.60
2023-08-29T09:35:17.614Z,65.88
2023-08-29T09:37:52.082Z,65.80
2023-08-29T09:40:31.827Z,64.95
2023-08-29T09:43:06.672Z,64.92
2023-08-29T09:45:40.018Z,64.37
2023-08-29T09:48:09.207Z,63.66
2023-08-29T09:50:38.321Z,63.42
2023-08-29T09:53:06.934Z,63.62
2023-08-29T09:55:40.334Z,63.52
2023-08-29T09:58:09.301Z,63.81
2023-08-29T10:00:42.202Z,63.46
2023-08-29T10:03:11.076Z,63.42
2023-08-29T10:05:41.343Z,63.43
2023-08-29T10:08:26.347Z,62.65
2023-08-29T10:10:56.399Z,63.54
2023-08-29T10:13:24.636Z,63.63
2023-08-29T10:15:54.054Z,63.11
2023-08-29T10:18:21.919Z,63.68
2023-08-29T10:20:50.390Z,63.70
2023-08-29T10:23:20.294Z,63.30
2023-08-29T10:25:48.230Z,63.45
2023-08-29T10:28:16.853Z,62.19
2023-08-29T10:30:45.918Z,62.05
2023-08-29T10:33:15.562Z,62.48
2023-08-29T10:35:43.859Z,62.52
2023-08-29T10:38:16.323Z,62.61
2023-08-29T10:40:44.425Z,61.33
2023-08-29T10:43:19.384Z,63.46
2023-08-29T10:45:52.400Z,62.76
2023-08-29T10:48:23.154Z,62.58
2023-08-29T10:51:11.579Z,60.05
2023-08-29T10:53:40.146Z,61.47
2023-08-29T10:56:08.973Z,61.93
2023-08-29T10:58:40.775Z,60.98
2023-08-29T11:01:09.961Z,61.02
2023-08-29T11:03:45.837Z,59.81
2023-08-29T11:06:13.903Z,60.41
2023-08-29T11:08:42.856Z,59.52
2023-08-29T11:11:21.142Z,58.59
2023-08-29T11:14:02.389Z,58.36
2023-08-29T11:16:30.739Z,59.66
2023-08-29T11:19:07.842Z,58.34
2023-08-29T11:21:35.895Z,58.47
2023-08-29T11:26:40.133Z,58.88
2023-08-29T11:29:08.181Z,58.11
2023-08-29T11:31:40.335Z,58.33
2023-08-29T11:34:15.352Z,56.63
2023-08-29T11:36:46.237Z,57.09
2023-08-29T11:39:14.453Z,57.18
2023-08-29T11:42:05.812Z,56.79
2023-08-29T11:45:03.949Z,58.54
2023-08-29T11:47:23.409Z,58.22
2023-08-29T11:49:52.936Z,58.61
2023-08-29T11:52:20.859Z,58.67
2023-08-29T11:54:51.695Z,59.00
2023-08-29T11:57:20.208Z,58.95
2023-08-29T11:59:48.919Z,59.35
2023-08-29T12:02:19.909Z,58.59
2023-08-29T12:04:49.346Z,59.41
2023-08-29T12:07:19.581Z,58.58
2023-08-29T12:09:48.503Z,58.93
2023-08-29T12:12:37.949Z,58.97
2023-08-29T12:15:07.729Z,60.10
2023-08-29T12:17:39.878Z,59.63
2023-08-29T12:20:27.340Z,59.60
2023-08-29T12:22:56.516Z,60.35
2023-08-29T12:25:26.087Z,59.69
2023-08-29T12:27:53.932Z,60.17
2023-08-29T12:30:21.819Z,60.93
2023-08-29T12:32:50.080Z,60.67
2023-08-29T12:35:19.294Z,61.25
2023-08-29T12:37:47.362Z,61.28
2023-08-29T12:40:16.591Z,61.33
2023-08-29T12:42:45.019Z,60.65
2023-08-29T12:45:12.981Z,60.87
2023-08-29T12:47:40.896Z,60.81
2023-08-29T12:50:09.405Z,60.34
2023-08-29T12:52:37.216Z,60.02
2023-08-29T12:55:05.664Z,60.02
2023-08-29T12:57:34.788Z,60.65
2023-08-29T13:00:02.582Z,60.37
2023-08-29T13:02:30.477Z,60.18
2023-08-29T13:04:58.338Z,60.18
2023-08-29T13:07:26.546Z,60.60
2023-08-29T13:09:56.032Z,60.20
2023-08-29T13:12:23.927Z,59.59
2023-08-29T13:14:53.064Z,59.87
2023-08-29T13:17:20.799Z,59.62
2023-08-29T13:19:48.581Z,59.27
2023-08-29T13:22:16.441Z,59.62
2023-08-29T13:24:44.509Z,59.73
2023-08-29T13:27:14.498Z,59.68
2023-08-29T13:29:42.436Z,58.39
2023-08-29T13:32:11.611Z,57.68
2023-08-29T13:34:39.420Z,57.54
2023-08-29T13:37:07.313Z,58.30
2023-08-29T13:39:35.077Z,58.28
2023-08-29T13:42:02.840Z,57.64
2023-08-29T13:44:33.065Z,57.95
2023-08-29T13:47:00.799Z,57.82
2023-08-29T13:49:29.980Z,57.62
2023-08-29T13:52:00.832Z,56.57
2023-08-29T13:54:31.827Z,54.88
2023-08-29T13:56:59.616Z,57.61
2023-08-29T13:59:27.409Z,57.31
2023-08-29T14:01:55.162Z,57.15
2023-08-29T14:04:22.939Z,56.95
2023-08-29T14:06:52.189Z,56.41
2023-08-29T14:09:20.224Z,55.79
2023-08-29T14:11:48.074Z,56.50
2023-08-29T14:14:17.061Z,56.12
2023-08-29T14:16:45.080Z,55.84
2023-08-29T14:19:14.052Z,55.13
2023-08-29T14:21:41.826Z,55.13
2023-08-29T14:24:11.181Z,54.80
2023-08-29T14:26:38.998Z,54.29
2023-08-29T14:29:08.003Z,55.09
2023-08-29T14:31:35.935Z,55.02
2023-08-29T14:34:03.827Z,54.52
2023-08-29T14:36:31.853Z,54.99
2023-08-29T14:39:01.681Z,54.63
2023-08-29T14:41:31.220Z,54.44
2023-08-29T14:43:59.011Z,54.62
2023-08-29T14:46:26.816Z,53.89
2023-08-29T14:48:54.596Z,53.96
2023-08-29T14:51:22.330Z,54.17
2023-08-29T14:53:51.939Z,54.00
2023-08-29T14:56:19.941Z,53.21
2023-08-29T14:58:49.089Z,53.82
2023-08-29T15:01:18.896Z,53.61
2023-08-29T15:03:46.869Z,53.15
2023-08-29T15:06:15.806Z,52.69
2023-08-29T15:08:43.767Z,52.66
2023-08-29T15:11:11.939Z,52.20
2023-08-29T15:13:42.087Z,51.26
2023-08-29T15:16:11.291Z,51.02
2023-08-29T15:18:39.390Z,51.14
2023-08-29T15:21:07.927Z,51.76
2023-08-29T15:23:35.724Z,51.25
2023-08-29T15:26:05.060Z,51.22
2023-08-29T15:28:33.052Z,51.33
2023-08-29T15:31:02.590Z,51.96
2023-08-29T15:33:32.343Z,51.76
2023-08-29T15:36:00.382Z,52.01
2023-08-29T15:38:30.030Z,52.04
2023-08-29T15:40:57.995Z,52.19
2023-08-29T15:43:26.294Z,52.88
2023-08-29T15:45:55.341Z,52.80
2023-08-29T15:48:23.229Z,53.11
2023-08-29T15:50:55.288Z,53.26
2023-08-29T15:53:23.205Z,53.16
2023-08-29T15:55:50.974Z,53.46
2023-08-29T15:58:18.952Z,53.47
2023-08-29T16:00:47.001Z,53.48
2023-08-29T16:03:14.883Z,53.68
2023-08-29T16:05:42.715Z,53.94
2023-08-29T16:08:11.923Z,54.32
2023-08-29T16:10:42.159Z,53.81
2023-08-29T16:13:09.962Z,54.36
2023-08-29T16:15:37.739Z,54.04
2023-08-29T16:18:06.312Z,54.57
2023-08-29T16:20:34.381Z,54.12
2023-08-29T16:23:02.268Z,54.44
2023-08-29T16:25:31.457Z,54.13
2023-08-29T16:28:00.963Z,54.50
2023-08-29T16:30:28.942Z,54.42
2023-08-29T16:32:57.219Z,53.66
2023-08-29T16:35:25.017Z,53.57
2023-08-29T16:37:52.831Z,53.51
2023-08-29T16:40:20.731Z,53.76
2023-08-29T16:42:49.863Z,53.87
2023-08-29T16:45:17.720Z,54.14
2023-08-29T16:47:45.613Z,54.54
2023-08-29T16:50:13.423Z,54.65
2023-08-29T16:52:41.242Z,54.41
2023-08-29T16:55:09.564Z,54.95
2023-08-29T16:57:37.392Z,54.75
2023-08-29T17:00:11.300Z,54.97
2023-08-29T17:02:39.617Z,55.17
2023-08-29T17:05:08.355Z,55.66
2023-08-29T17:07:36.357Z,55.86
2023-08-29T17:10:04.378Z,55.45
2023-08-29T17:12:32.238Z,55.92
2023-08-29T17:15:01.208Z,56.59
2023-08-29T17:17:30.297Z,56.84
2023-08-29T17:19:58.961Z,57.22
2023-08-29T17:22:26.887Z,57.41
2023-08-29T17:24:54.700Z,57.43
2023-08-29T17:27:22.633Z,58.07
2023-08-29T17:29:50.509Z,58.34
2023-08-29T17:32:18.429Z,58.56
2023-08-29T17:34:47.643Z,58.92
2023-08-29T17:37:15.424Z,59.61
2023-08-29T17:39:43.352Z,59.89
2023-08-29T17:42:11.157Z,60.46
2023-08-29T17:44:38.964Z,60.60
2023-08-29T17:47:07.652Z,60.99
2023-08-29T17:49:35.524Z,61.33
2023-08-29T17:52:05.082Z,61.56
2023-08-29T17:54:32.927Z,62.01
2023-08-29T17:57:00.707Z,62.30
2023-08-29T17:59:30.200Z,62.33
2023-08-29T18:01:58.008Z,62.73
2023-08-29T18:04:25.785Z,63.46
2023-08-29T18:06:53.664Z,63.40
2023-08-29T18:09:22.876Z,63.58
2023-08-29T18:11:50.673Z,64.33
2023-08-29T18:14:18.473Z,64.45
2023-08-29T18:16:47.026Z,64.34
2023-08-29T18:19:17.309Z,64.66
2023-08-29T18:21:45.224Z,64.54
2023-08-29T18:24:14.698Z,64.86
2023-08-29T18:26:43.897Z,65.53
2023-08-29T18:29:11.674Z,65.34
2023-08-29T18:31:39.595Z,65.75
2023-08-29T18:34:07.513Z,65.86
2023-08-29T18:36:36.986Z,66.09
2023-08-29T18:39:06.074Z,66.61
2023-08-29T18:41:33.868Z,66.15
2023-08-29T18:44:03.006Z,66.59
2023-08-29T18:46:31.752Z,66.57
2023-08-29T18:48:59.561Z,66.60
2023-08-29T18:51:27.368Z,66.52
2023-08-29T18:53:55.266Z,67.09
2023-08-29T18:56:24.442Z,67.02
2023-08-29T18:58:52.271Z,67.01
2023-08-29T19:01:21.514Z,67.36
2023-08-29T19:03:49.426Z,67.53
2023-08-29T19:06:21.523Z,67.05
2023-08-29T19:08:50.950Z,67.11
2023-08-29T19:11:18.798Z,67.42
2023-08-29T19:13:46.744Z,68.09
2023-08-29T19:16:14.859Z,68.28
2023-08-29T19:18:44.208Z,68.58
2023-08-29T19:21:12.013Z,68.93
2023-08-29T19:23:39.866Z,69.10
2023-08-29T19:26:10.777Z,68.76
2023-08-29T19:28:38.655Z,68.53
2023-08-29T19:31:21.626Z,68.81
2023-08-29T19:33:50.770Z,69.12
2023-08-29T19:36:19.822Z,69.94
2023-08-29T19:38:47.677Z,70.42
2023-08-29T19:41:16.502Z,70.36
2023-08-29T19:43:44.552Z,70.86
2023-08-29T19:46:12.360Z,70.93
2023-08-29T19:48:40.389Z,71.46
2023-08-29T19:51:09.616Z,71.39
2023-08-29T19:53:38.452Z,71.66
2023-08-29T19:56:07.202Z,71.32
2023-08-29T19:58:35.829Z,71.86
2023-08-29T20:01:07.310Z,72.34
2023-08-29T20:03:35.351Z,72.55
2023-08-29T20:06:03.264Z,72.20
2023-08-29T20:08:32.495Z,72.21
2023-08-29T20:11:00.299Z,72.46
2023-08-29T20:13:28.188Z,72.96
2023-08-29T20:15:56.025Z,73.02
2023-08-29T20:18:23.835Z,73.28
2023-08-29T20:20:51.646Z,72.97
2023-08-29T20:23:20.040Z,73.19
2023-08-29T20:25:49.277Z,73.48
2023-08-29T20:28:17.103Z,73.54
2023-08-29T20:30:45.126Z,74.15
2023-08-29T20:33:13.064Z,73.68
2023-08-29T20:35:45.400Z,73.75
2023-08-29T20:38:13.300Z,73.47
2023-08-29T20:40:42.330Z,73.82
2023-08-29T20:43:11.516Z,74.25
2023-08-29T20:45:39.334Z,73.95
2023-08-29T20:48:08.013Z,74.00
2023-08-29T20:50:36.176Z,74.23
2023-08-29T20:53:04.153Z,74.18
2023-08-29T20:55:32.165Z,74.12
2023-08-29T20:58:00.857Z,74.63
2023-08-29T21:00:32.032Z,74.79
2023-08-29T21:02:59.877Z,74.31
2023-08-29T21:05:27.681Z,74.34
2023-08-29T21:07:55.462Z,74.78
2023-08-29T21:10:23.261Z,74.77
2023-08-29T21:12:51.556Z,75.08
2023-08-29T21:15:19.340Z,75.22
2023-08-29T21:17:49.383Z,75.03
2023-08-29T21:20:17.492Z,74.86
2023-08-29T21:22:45.287Z,75.38
2023-08-29T21:25:13.107Z,75.02
2023-08-29T21:27:42.690Z,75.33
2023-08-29T21:30:11.382Z,76.07
2023-08-29T21:32:39.333Z,76.12
2023-08-29T21:35:09.445Z,75.57
2023-08-29T21:37:37.321Z,76.27
2023-08-29T21:40:06.202Z,75.67
2023-08-29T21:42:36.857Z,76.10
2023-08-29T21:45:08.917Z,75.66
2023-08-29T21:47:36.766Z,75.52
2023-08-29T21:50:05.082Z,75.57
2023-08-29T21:52:34.320Z,75.60
2023-08-29T21:55:02.202Z,76.13
2023-08-29T21:57:29.969Z,76.02
2023-08-29T21:59:57.729Z,75.64
2023-08-29T22:02:25.595Z,76.03
2023-08-29T22:04:55.967Z,76.33
2023-08-29T22:07:23.766Z,76.02
2023-08-29T22:09:53.531Z,76.31
2023-08-29T22:12:22.959Z,76.23
2023-08-29T22:14:50.734Z,76.32
2023-08-29T22:17:18.604Z,76.61
2023-08-29T22:19:46.444Z,76.91
2023-08-29T22:22:14.336Z,76.16
2023-08-29T22:24:42.199Z,76.25
2023-08-29T22:27:11.428Z,76.45
2023-08-29T22:29:41.300Z,76.94
2023-08-29T22:32:09.972Z,76.98
2023-08-29T22:34:37.820Z,76.64
2023-08-29T22:37:06.734Z,76.16
2023-08-29T22:39:35.074Z,76.10
2023-08-29T22:42:02.863Z,76.01
2023-08-29T22:44:32.126Z,76.27
2023-08-29T22:46:59.864Z,76.54
2023-08-29T22:49:27.608Z,76.46
2023-08-29T22:51:55.483Z,76.12
2023-08-29T22:54:23.292Z,76.23
2023-08-29T22:56:51.081Z,76.03
2023-08-29T22:59:18.861Z,76.66
2023-08-29T23:01:48.754Z,76.79
2023-08-29T23:04:16.616Z,76.62
2023-08-29T23:06:44.797Z,76.31
2023-08-29T23:09:15.465Z,76.50
2023-08-29T23:11:43.878Z,76.99
2023-08-29T23:14:22.277Z,76.56
2023-08-29T23:16:51.895Z,76.18
2023-08-29T23:19:19.880Z,76.98
2023-08-29T23:21:47.673Z,77.14
2023-08-29T23:24:15.865Z,77.09
2023-08-29T23:26:43.739Z,77.14
2023-08-29T23:29:12.354Z,77.37
2023-08-29T23:31:40.879Z,76.66
2023-08-29T23:34:10.678Z,77.47
2023-08-29T23:36:38.556Z,77.53
2023-08-29T23:39:08.150Z,77.54
2023-08-29T23:41:36.184Z,77.09
2023-08-29T23:44:03.984Z,77.69
2023-08-29T23:46:32.138Z,77.62
2023-08-29T23:48:59.963Z,77.73
2023-08-29T23:51:29.070Z,77.90
2023-08-29T23:53:56.937Z,77.29
2023-08-29T23:56:24.700Z,77.99
2023-08-29T23:58:52.502Z,78.09
